Silver Ridge, Maine
Current Conditions -  °F | °C
As of 10:53 AM on Tuesday 21 Oct 2014 (Local Time) from KMLT Reporting Station
Overcast Overcast  
Wind Chill:   Ceiling: 9000
Heat Index:   Visibility: 10mi
Dew Point:   Wind: 6mph
Humidity: 60%   Direction: 110°ESE
Pressure: 30.12"   Gusts: NA
Location:  45.8047°N, 68.2984°W
Report Text: KMLT 211453Z AUTO 11005KT 10SM FEW080 OVC090 07/00 A3012 RMK AO2 SLP208 T00720000 53010
Loading
Personal Weather Stations






























Interactive Weather Map
Tropical Storm Tracking
New forecast layout! Learn more

10-Day Weather Forecast

Advertisements
Track Severe Weather on mobile